Historyczne dane pomiarowe

Dodano dane terminowe – wersja testowa.

Dane z okresu 1951-2019

Wersja bazy: 1.34 [2019-03-16, lista zmian], aktualizacja planowana na 2019-04-15

Dane meteo z obszaru Polski uzyskane na podstawie danych udostępnionych przez Instytut Meteorologii i Gospodarki Wodnej – Państwowy Instytut Badawczy.

 

Wybierz Datę:    

       

TemperaturaWilgotnośćZachmurzenieWiatrCiśnienieWidzialnośćZjawiska
 Data    tng td wb rh cc ccl cl cm ch dir g1 g2 mslp ppp      
1999-07-19 00:00:00 15.4--- 14.7 15.096wxwxwxwx2wx--1017.7 995.6 0.0---wx
1999-07-19 01:00:00 15.2--- 14.5 14.896wxwxwxwx2wx--1017.7 995.6----wx
1999-07-19 02:00:00 14.5--- 14.0 14.297wxwxwxwx2wx--1017.8 995.6----wx
1999-07-19 03:00:00 15.0--- 14.3 14.696wxwxwxwx1wx--1017.9 995.7----wx
1999-07-19 04:00:00 16.2--- 14.9 15.492wxwxwx0wx--1017.8 995.7----wx
1999-07-19 05:00:00 18.0--- 14.8 16.081wxwxwx1wx--1017.4 995.5----wx
1999-07-19 06:00:00 20.0--- 14.5 16.671wxwxwx0wx--1017.0 995.2 0.0---wx
1999-07-19 07:00:00 22.3--- 16.9 18.872wxwx1wx--1016.4 994.8----wx
1999-07-19 08:00:00 23.3--- 15.6 18.462wxwxwx1wx--1016.2 994.7----wx
1999-07-19 09:00:00 23.5--- 14.8 18.058wxwxwx2wx--1016.0 994.5----wx
1999-07-19 10:00:00 23.6--- 16.2 18.863wxwxwx2wx--1015.8 994.3----wx
1999-07-19 11:00:00 24.4--- 15.5 18.758wxwxwx2wx--1015.5 994.1----wx
1999-07-19 12:00:00 25.3--- 16.6 19.658wxwxwx3wx--1015.2 993.9 0.0---wx
1999-07-19 13:00:00 25.0--- 15.1 18.754wxwxwx2wx--1015.0 993.6----wx
1999-07-19 14:00:00 25.0--- 14.6 18.452wxwxwx3wx--1014.9 993.5----wx
1999-07-19 15:00:00 24.8--- 15.1 18.655wxwxwx3wx--1014.8 993.4----wx
1999-07-19 16:00:00 24.2--- 14.2 17.953wxwxwx3wx--1014.6 993.2----wx
1999-07-19 17:00:00 23.4--- 14.5 17.857wxwxwx3wx--1014.5 993.0----wx
1999-07-19 18:00:00 21.9--- 15.4 17.867wxwxwx2wx--1014.6 993.0 0.0---wx
1999-07-19 19:00:00 20.1--- 15.8 17.477wxwxwx2wx--1015.2 993.5----wx
1999-07-19 20:00:00 18.9--- 16.7 17.587wxwxwx2wx--1015.5 993.7----wx
1999-07-19 21:00:00 18.4--- 16.5 17.289wxwxwx3wx--1015.4 993.6----wx
1999-07-19 22:00:00 17.2--- 16.1 16.593wxwx2wx--1015.6 993.7----wx
1999-07-19 23:00:00 16.5--- 14.4 15.287wxwx2wx--1015.7 993.7----wx

 

Źródłem pochodzenia danych jest Instytut Meteorologii i Gospodarki Wodnej – Państwowy Instytut Badawczy. Dane Instytutu Meteorologii i Gospodarki Wodnej – Państwowego Instytutu Badawczego zostały przetworzone.

Dane źródłowe można odnaleźć na stronie https://dane.imgw.pl